createdAt,value
2018-08-03T00:02:22.051Z,102373.27
2018-08-03T00:04:50.693Z,102373.64
2018-08-03T00:07:19.116Z,102372.80
2018-08-03T00:09:47.520Z,102367.69
2018-08-03T00:12:16.067Z,102362.06
2018-08-03T00:14:44.413Z,102364.13
2018-08-03T00:17:12.921Z,102362.16
2018-08-03T00:19:41.778Z,102363.73
2018-08-03T00:22:10.266Z,102358.92
2018-08-03T00:24:38.666Z,102360.97
2018-08-03T00:27:07.082Z,102361.34
2018-08-03T00:29:35.422Z,102361.06
2018-08-03T00:32:03.941Z,102361.09
2018-08-03T00:34:32.307Z,102360.95
2018-08-03T00:37:00.763Z,102359.50
2018-08-03T00:39:29.165Z,102364.83
2018-08-03T00:41:57.655Z,102360.31
2018-08-03T00:44:26.148Z,102365.77
2018-08-03T00:46:54.586Z,102357.51
2018-08-03T00:49:23.045Z,102355.32
2018-08-03T00:51:51.147Z,102355.81
2018-08-03T00:54:19.673Z,102355.72
2018-08-03T00:56:48.355Z,102355.58
2018-08-03T00:59:16.844Z,102349.39
2018-08-03T01:01:45.298Z,102355.55
2018-08-03T01:04:13.766Z,102351.44
2018-08-03T01:06:41.960Z,102351.20
2018-08-03T01:09:11.984Z,102353.03
2018-08-03T01:11:40.467Z,102353.17
2018-08-03T01:14:09.550Z,102354.64
2018-08-03T01:16:40.559Z,102358.36
2018-08-03T01:19:11.597Z,102354.64
2018-08-03T01:21:40.221Z,102356.55
2018-08-03T01:24:09.301Z,102355.95
2018-08-03T01:26:37.982Z,102350.36
2018-08-03T01:29:06.435Z,102353.86
2018-08-03T01:31:35.031Z,102356.02
2018-08-03T01:34:03.827Z,102354.22
2018-08-03T01:36:33.705Z,102360.39
2018-08-03T01:39:04.534Z,102359.00
2018-08-03T01:41:33.110Z,102356.02
2018-08-03T01:44:02.014Z,102352.45
2018-08-03T01:46:31.470Z,102352.08
2018-08-03T01:49:00.737Z,102351.32
2018-08-03T01:51:29.565Z,102346.37
2018-08-03T01:53:59.659Z,102343.56
2018-08-03T01:56:28.463Z,102340.77
2018-08-03T01:58:57.378Z,102339.67
2018-08-03T02:01:26.307Z,102339.80
2018-08-03T02:03:54.976Z,102335.42
2018-08-03T02:06:23.734Z,102328.61
2018-08-03T02:08:52.450Z,102338.75
2018-08-03T02:11:21.175Z,102327.97
2018-08-03T02:13:50.258Z,102334.06
2018-08-03T02:16:19.652Z,102339.39
2018-08-03T02:18:48.434Z,102338.87
2018-08-03T02:21:17.057Z,102340.29
2018-08-03T02:23:45.719Z,102333.74
2018-08-03T02:26:14.457Z,102338.55
2018-08-03T02:28:44.080Z,102338.02
2018-08-03T02:31:12.653Z,102335.33
2018-08-03T02:33:44.163Z,102328.41
2018-08-03T02:36:15.594Z,102332.89
2018-08-03T02:38:45.003Z,102333.92
2018-08-03T02:41:13.586Z,102338.58
2018-08-03T02:43:42.180Z,102333.52
2018-08-03T02:46:10.824Z,102334.99
2018-08-03T02:48:39.500Z,102335.64
2018-08-03T02:51:08.015Z,102339.63
2018-08-03T02:53:36.593Z,102338.98
2018-08-03T02:56:05.244Z,102335.80
2018-08-03T02:58:33.643Z,102332.70
2018-08-03T03:01:02.229Z,102332.45
2018-08-03T03:03:31.261Z,102330.96
2018-08-03T03:06:00.200Z,102331.19
2018-08-03T03:08:29.370Z,102337.36
2018-08-03T03:10:57.969Z,102335.72
2018-08-03T03:13:26.485Z,102339.06
2018-08-03T03:15:56.060Z,102335.80
2018-08-03T03:18:24.650Z,102335.84
2018-08-03T03:20:53.767Z,102335.30
2018-08-03T03:23:22.547Z,102340.70
2018-08-03T03:25:51.165Z,102339.56
2018-08-03T03:28:19.798Z,102337.97
2018-08-03T03:30:48.438Z,102338.84
2018-08-03T03:33:17.131Z,102332.75
2018-08-03T03:35:45.809Z,102329.52
2018-08-03T03:38:16.050Z,102331.80
2018-08-03T03:40:44.797Z,102330.70
2018-08-03T03:43:13.397Z,102324.54
2018-08-03T03:45:42.131Z,102326.25
2018-08-03T03:48:11.397Z,102323.20
2018-08-03T03:50:39.687Z,102329.41
2018-08-03T03:53:08.682Z,102326.06
2018-08-03T03:55:37.340Z,102324.27
2018-08-03T03:58:05.873Z,102321.61
2018-08-03T04:00:34.568Z,102324.34
2018-08-03T04:03:04.094Z,102326.21
2018-08-03T04:05:33.253Z,102325.72
2018-08-03T04:08:01.847Z,102328.38
2018-08-03T04:10:30.551Z,102329.71
2018-08-03T04:12:59.328Z,102334.84
2018-08-03T04:15:28.080Z,102328.19
2018-08-03T04:17:57.376Z,102323.97
2018-08-03T04:20:25.609Z,102323.44
2018-08-03T04:22:53.916Z,102321.27
2018-08-03T04:25:22.643Z,102323.66
2018-08-03T04:27:51.391Z,102321.69
2018-08-03T04:30:20.565Z,102320.80
2018-08-03T04:32:49.455Z,102326.13
2018-08-03T04:35:18.079Z,102328.45
2018-08-03T04:37:47.295Z,102332.94
2018-08-03T04:40:15.872Z,102327.05
2018-08-03T04:42:45.461Z,102324.39
2018-08-03T04:45:14.966Z,102328.80
2018-08-03T04:47:44.746Z,102329.48
2018-08-03T04:50:13.650Z,102329.48
2018-08-03T04:52:43.940Z,102323.47
2018-08-03T04:55:16.399Z,102326.62
2018-08-03T04:57:46.734Z,102334.50
2018-08-03T05:00:15.623Z,102334.77
2018-08-03T05:02:45.976Z,102335.52
2018-08-03T05:05:17.310Z,102333.09
2018-08-03T05:07:49.491Z,102336.59
2018-08-03T05:10:18.177Z,102337.12
2018-08-03T05:12:48.174Z,102330.49
2018-08-03T05:15:18.988Z,102344.23
2018-08-03T05:17:47.652Z,102332.20
2018-08-03T05:20:17.098Z,102340.23
2018-08-03T05:22:46.156Z,102338.27
2018-08-03T05:25:18.940Z,102339.13
2018-08-03T05:27:48.120Z,102336.58
2018-08-03T05:30:17.711Z,102329.83
2018-08-03T05:32:47.020Z,102335.68
2018-08-03T05:35:16.408Z,102333.99
2018-08-03T05:37:45.129Z,102334.05
2018-08-03T05:40:14.683Z,102333.11
2018-08-03T05:42:44.010Z,102331.48
2018-08-03T05:45:12.855Z,102333.33
2018-08-03T05:47:44.535Z,102328.86
2018-08-03T05:50:15.067Z,102322.58
2018-08-03T05:52:46.120Z,102326.72
2018-08-03T05:55:14.908Z,102327.09
2018-08-03T05:57:44.391Z,102331.36
2018-08-03T06:00:16.243Z,102329.78
2018-08-03T06:02:45.491Z,102327.38
2018-08-03T06:05:16.586Z,102325.70
2018-08-03T06:07:47.659Z,102324.41
2018-08-03T06:10:18.952Z,102328.80
2018-08-03T06:12:48.367Z,102327.83
2018-08-03T06:15:18.359Z,102324.19
2018-08-03T06:17:48.553Z,102321.64
2018-08-03T06:20:17.475Z,102323.94
2018-08-03T06:22:47.145Z,102328.69
2018-08-03T06:25:17.219Z,102319.58
2018-08-03T06:27:48.015Z,102318.22
2018-08-03T06:30:16.807Z,102319.17
2018-08-03T06:32:46.655Z,102312.76
2018-08-03T06:35:16.659Z,102306.19
2018-08-03T06:37:46.173Z,102305.70
2018-08-03T06:40:19.665Z,102306.78
2018-08-03T06:42:49.567Z,102309.44
2018-08-03T06:45:19.769Z,102305.91
2018-08-03T06:47:50.291Z,102302.64
2018-08-03T06:50:20.174Z,102301.64
2018-08-03T06:52:49.740Z,102306.61
2018-08-03T06:55:18.987Z,102297.86
2018-08-03T06:57:49.231Z,102302.46
2018-08-03T07:00:18.738Z,102307.00
2018-08-03T07:02:50.532Z,102305.25
2018-08-03T07:05:21.290Z,102309.34
2018-08-03T07:07:50.563Z,102307.24
2018-08-03T07:10:20.440Z,102312.33
2018-08-03T07:12:52.372Z,102303.14
2018-08-03T07:15:21.045Z,102307.69
2018-08-03T07:17:49.881Z,102308.59
2018-08-03T07:20:20.832Z,102316.25
2018-08-03T07:22:49.795Z,102317.61
2018-08-03T07:25:21.584Z,102314.48
2018-08-03T07:27:50.305Z,102319.51
2018-08-03T07:30:19.897Z,102318.48
2018-08-03T07:32:49.602Z,102315.78
2018-08-03T07:35:18.443Z,102329.20
2018-08-03T07:37:47.329Z,102327.95
2018-08-03T07:40:16.150Z,102327.45
2018-08-03T07:42:47.394Z,102330.47
2018-08-03T07:45:30.567Z,102328.89
2018-08-03T07:48:07.275Z,102327.30
2018-08-03T07:50:37.470Z,102320.93
2018-08-03T07:53:12.990Z,102328.34
2018-08-03T07:55:45.193Z,102330.31
2018-08-03T07:58:15.130Z,102324.91
2018-08-03T08:00:46.019Z,102330.82
2018-08-03T08:03:18.959Z,102325.50
2018-08-03T08:15:37.875Z,102321.87
2018-08-03T08:18:09.897Z,102306.16
2018-08-03T08:20:39.657Z,102298.02
2018-08-03T08:23:09.040Z,102300.73
2018-08-03T08:25:40.543Z,102292.31
2018-08-03T08:28:12.083Z,102294.09
2018-08-03T08:30:43.154Z,102284.15
2018-08-03T08:33:13.437Z,102286.03
2018-08-03T08:35:43.504Z,102281.00
2018-08-03T08:38:12.940Z,102285.28
2018-08-03T08:40:43.816Z,102286.88
2018-08-03T08:43:14.346Z,102286.05
2018-08-03T08:45:44.336Z,102284.34
2018-08-03T08:48:15.550Z,102286.34
2018-08-03T08:50:45.272Z,102285.86
2018-08-03T08:53:14.108Z,102289.09
2018-08-03T08:55:43.421Z,102283.09
2018-08-03T08:58:12.370Z,102276.31
2018-08-03T09:00:41.001Z,102279.94
2018-08-03T09:03:10.401Z,102274.99
2018-08-03T09:05:41.331Z,102276.47
2018-08-03T09:08:11.844Z,102274.99
2018-08-03T09:10:40.399Z,102269.68
2018-08-03T09:13:09.888Z,102269.23
2018-08-03T09:15:41.714Z,102268.30
2018-08-03T09:18:12.520Z,102270.42
2018-08-03T09:20:42.478Z,102274.17
2018-08-03T09:23:11.108Z,102271.02
2018-08-03T09:25:40.389Z,102268.72
2018-08-03T09:37:54.809Z,102260.08
2018-08-03T09:40:26.333Z,102262.02
2018-08-03T09:42:58.774Z,102262.92
2018-08-03T09:45:28.393Z,102261.16
2018-08-03T09:47:58.163Z,102263.02
2018-08-03T09:50:29.097Z,102259.91
2018-08-03T09:52:59.671Z,102254.86
2018-08-03T09:55:33.074Z,102255.59
2018-08-03T09:58:04.965Z,102262.07
2018-08-03T10:00:40.243Z,102260.11
2018-08-03T10:03:09.669Z,102261.29
2018-08-03T10:05:42.456Z,102254.61
2018-08-03T10:08:14.493Z,102254.02
2018-08-03T10:10:44.195Z,102254.67
2018-08-03T10:13:14.017Z,102251.70
2018-08-03T10:15:43.803Z,102255.73
2018-08-03T10:18:13.346Z,102243.77
2018-08-03T10:20:44.177Z,102247.11
2018-08-03T10:23:20.064Z,102244.48
2018-08-03T10:25:50.213Z,102239.27
2018-08-03T10:28:21.061Z,102240.27
2018-08-03T10:30:52.276Z,102236.55
2018-08-03T10:33:24.814Z,102233.37
2018-08-03T10:35:54.676Z,102236.23
2018-08-03T10:38:25.786Z,102226.22
2018-08-03T10:40:56.102Z,102221.93
2018-08-03T10:43:26.208Z,102221.42
2018-08-03T10:45:56.802Z,102215.73
2018-08-03T10:48:26.364Z,102220.37
2018-08-03T10:50:58.091Z,102217.48
2018-08-03T10:53:28.449Z,102219.28
2018-08-03T10:55:59.260Z,102215.97
2018-08-03T10:58:28.769Z,102223.30
2018-08-03T11:00:58.311Z,102215.00
2018-08-03T11:03:27.688Z,102210.41
2018-08-03T11:15:45.080Z,102202.06
2018-08-03T11:18:15.342Z,102198.06
2018-08-03T11:20:45.231Z,102190.86
2018-08-03T11:23:15.686Z,102195.29
2018-08-03T11:25:46.462Z,102198.57
2018-08-03T11:28:17.306Z,102189.09
2018-08-03T11:30:46.833Z,102192.00
2018-08-03T11:33:15.720Z,102187.05
2018-08-03T11:35:45.683Z,102185.80
2018-08-03T11:38:15.487Z,102182.77
2018-08-03T11:40:44.298Z,102186.80
2018-08-03T11:43:14.712Z,102185.93
2018-08-03T11:45:43.276Z,102182.67
2018-08-03T11:48:15.794Z,102176.36
2018-08-03T11:50:45.902Z,102168.94
2018-08-03T11:53:15.774Z,102170.52
2018-08-03T11:55:44.508Z,102171.05
2018-08-03T11:58:13.136Z,102169.78
2018-08-03T12:00:42.663Z,102172.94
2018-08-03T12:03:12.013Z,102172.41
2018-08-03T12:05:42.886Z,102170.21
2018-08-03T12:08:12.119Z,102166.23
2018-08-03T12:10:42.360Z,102166.73
2018-08-03T12:13:11.991Z,102158.65
2018-08-03T12:15:41.620Z,102161.80
2018-08-03T12:18:13.775Z,102156.26
2018-08-03T12:20:46.209Z,102155.19
2018-08-03T12:23:19.138Z,102156.45
2018-08-03T12:25:49.810Z,102146.62
2018-08-03T12:28:19.554Z,102146.37
2018-08-03T12:30:49.313Z,102144.93
2018-08-03T12:33:19.823Z,102135.64
2018-08-03T12:35:50.206Z,102130.55
2018-08-03T12:38:20.419Z,102135.20
2018-08-03T12:40:49.714Z,102131.72
2018-08-03T12:43:18.362Z,102131.50
2018-08-03T12:45:47.738Z,102122.61
2018-08-03T12:48:17.022Z,102125.09
2018-08-03T12:50:45.902Z,102116.66
2018-08-03T12:53:15.509Z,102125.33
2018-08-03T12:55:44.968Z,102117.03
2018-08-03T12:58:14.901Z,102104.70
2018-08-03T13:00:43.677Z,102115.38
2018-08-03T13:03:12.509Z,102104.89
2018-08-03T13:05:41.118Z,102099.02
2018-08-03T13:08:10.935Z,102104.44
2018-08-03T13:10:41.253Z,102099.55
2018-08-03T13:13:11.619Z,102096.86
2018-08-03T13:15:41.140Z,102100.95
2018-08-03T13:18:10.564Z,102098.46
2018-08-03T13:20:40.048Z,102104.25
2018-08-03T13:23:09.257Z,102098.00
2018-08-03T13:25:38.524Z,102091.85
2018-08-03T13:28:07.847Z,102088.48
2018-08-03T13:30:37.127Z,102087.38
2018-08-03T13:33:06.501Z,102088.45
2018-08-03T13:35:35.279Z,102085.94
2018-08-03T13:38:05.268Z,102084.04
2018-08-03T13:40:34.489Z,102085.86
2018-08-03T13:43:08.656Z,102085.41
2018-08-03T13:45:37.299Z,102068.97
2018-08-03T13:48:12.710Z,102076.42
2018-08-03T13:50:42.368Z,102075.45
2018-08-03T13:53:14.723Z,102066.97
2018-08-03T13:55:43.568Z,102060.77
2018-08-03T13:58:13.780Z,102066.58
2018-08-03T14:00:44.285Z,102065.11
2018-08-03T14:03:13.124Z,102057.59
2018-08-03T14:05:42.342Z,102061.72
2018-08-03T14:08:13.274Z,102054.00
2018-08-03T14:10:42.727Z,102055.41
2018-08-03T14:29:57.974Z,102061.80
2018-08-03T14:32:27.319Z,102047.09
2018-08-03T14:34:56.603Z,102049.81
2018-08-03T14:37:26.363Z,102053.33
2018-08-03T14:39:55.957Z,102045.16
2018-08-03T14:42:24.665Z,102044.50
2018-08-03T14:44:56.791Z,102041.97
2018-08-03T14:47:29.501Z,102043.36
2018-08-03T14:50:00.066Z,102044.41
2018-08-03T14:52:30.432Z,102042.31
2018-08-03T14:54:59.734Z,102038.84
2018-08-03T14:57:28.704Z,102038.23
2018-08-03T14:59:59.656Z,102043.24
2018-08-03T15:02:30.707Z,102035.27
2018-08-03T15:04:59.088Z,102040.53
2018-08-03T15:07:29.646Z,102037.58
2018-08-03T15:09:58.093Z,102035.72
2018-08-03T15:12:28.968Z,102034.20
2018-08-03T15:14:57.782Z,102034.58
2018-08-03T15:17:27.526Z,102034.95
2018-08-03T15:19:56.207Z,102026.03
2018-08-03T15:22:26.744Z,102026.34
2018-08-03T15:24:55.764Z,102030.78
2018-08-03T15:27:25.142Z,102029.80
2018-08-03T15:29:55.612Z,102021.31
2018-08-03T15:32:26.614Z,102014.64
2018-08-03T15:34:55.394Z,102014.65
2018-08-03T15:37:24.873Z,102010.67
2018-08-03T15:39:53.451Z,102007.08
2018-08-03T15:42:22.896Z,102004.25
2018-08-03T15:44:52.404Z,102004.69
2018-08-03T15:47:27.444Z,102011.63
2018-08-03T15:49:58.035Z,102004.98
2018-08-03T15:52:33.431Z,102002.67
2018-08-03T15:55:02.989Z,102005.00
2018-08-03T15:57:33.745Z,102000.20
2018-08-03T16:09:48.416Z,101995.56
2018-08-03T16:12:17.608Z,101990.25
2018-08-03T16:14:47.138Z,101997.14
2018-08-03T16:17:18.472Z,101990.85
2018-08-03T16:19:47.320Z,101986.50
2018-08-03T16:22:18.170Z,101989.27
2018-08-03T16:24:48.148Z,101990.01
2018-08-03T16:27:18.896Z,101978.45
2018-08-03T16:29:48.822Z,101975.77
2018-08-03T16:32:19.812Z,101975.95
2018-08-03T16:34:48.366Z,101969.80
2018-08-03T16:37:17.061Z,101971.12
2018-08-03T16:39:46.606Z,101977.14
2018-08-03T16:42:17.635Z,101969.72
2018-08-03T16:44:46.372Z,101973.59
2018-08-03T16:47:16.845Z,101972.69
2018-08-03T16:49:47.234Z,101972.77
2018-08-03T16:52:19.522Z,101966.23
2018-08-03T16:54:49.818Z,101968.13
2018-08-03T16:57:18.554Z,101979.10
2018-08-03T16:59:48.200Z,101975.65
2018-08-03T17:02:20.162Z,101979.12
2018-08-03T17:04:49.469Z,101984.08
2018-08-03T17:07:19.608Z,101985.81
2018-08-03T17:09:48.771Z,101978.90
2018-08-03T17:12:17.692Z,101979.36
2018-08-03T17:14:46.287Z,101986.61
2018-08-03T17:17:18.323Z,101985.48
2018-08-03T17:19:48.460Z,101961.77
2018-08-03T17:22:18.538Z,101977.59
2018-08-03T17:24:48.315Z,101982.20
2018-08-03T17:27:17.837Z,101985.42
2018-08-03T17:29:47.595Z,101985.14
2018-08-03T17:32:19.974Z,101981.85
2018-08-03T17:34:50.016Z,101980.61
2018-08-03T17:37:20.084Z,101981.65
2018-08-03T17:39:48.741Z,101979.45
2018-08-03T17:42:23.521Z,101983.88
2018-08-03T17:44:52.258Z,101985.20
2018-08-03T17:47:21.705Z,101979.45
2018-08-03T17:49:51.240Z,101978.03
2018-08-03T17:52:21.864Z,101964.67
2018-08-03T17:54:51.850Z,101974.19
2018-08-03T17:57:20.570Z,101974.70
2018-08-03T17:59:50.404Z,101979.94
2018-08-03T18:02:19.069Z,101978.13
2018-08-03T18:04:47.735Z,101982.85
2018-08-03T18:07:16.532Z,101972.97
2018-08-03T18:09:46.615Z,101970.38
2018-08-03T18:12:15.256Z,101977.86
2018-08-03T18:14:45.378Z,101975.03
2018-08-03T18:26:59.658Z,101978.41
2018-08-03T18:29:28.445Z,101984.92
2018-08-03T18:31:58.352Z,101976.99
2018-08-03T18:34:27.353Z,101981.05
2018-08-03T18:36:56.332Z,101982.09
2018-08-03T18:39:25.003Z,101988.86
2018-08-03T18:41:54.341Z,101987.34
2018-08-03T18:44:23.484Z,101987.55
2018-08-03T18:46:52.136Z,101979.41
2018-08-03T18:49:21.524Z,101976.72
2018-08-03T18:51:51.075Z,101973.70
2018-08-03T18:54:21.567Z,101983.59
2018-08-03T18:56:50.129Z,101980.77
2018-08-03T18:59:18.934Z,101978.63
2018-08-03T19:01:47.690Z,101980.50
2018-08-03T19:04:16.605Z,101974.91
2018-08-03T19:06:48.668Z,101978.31
2018-08-03T19:09:17.448Z,101980.17
2018-08-03T19:11:45.518Z,101975.97
2018-08-03T19:14:14.061Z,101978.50
2018-08-03T19:16:43.006Z,101971.23
2018-08-03T19:19:12.145Z,101973.72
2018-08-03T19:21:45.120Z,101980.46
2018-08-03T19:24:14.255Z,101980.09
2018-08-03T19:26:43.627Z,101969.61
2018-08-03T19:29:12.872Z,101980.05
2018-08-03T19:31:41.567Z,101980.20
2018-08-03T19:34:10.170Z,101981.56
2018-08-03T19:36:39.647Z,101984.88
2018-08-03T19:39:10.238Z,101989.14
2018-08-03T19:41:38.934Z,101987.11
2018-08-03T19:44:10.590Z,101985.87
2018-08-03T19:59:41.033Z,101995.72
2018-08-03T20:02:10.047Z,101994.80
2018-08-03T20:04:38.676Z,101999.45
2018-08-03T20:07:08.980Z,101998.76
2018-08-03T20:09:38.920Z,101996.33
2018-08-03T20:12:09.969Z,102000.36
2018-08-03T20:14:43.074Z,101994.47
2018-08-03T20:17:12.489Z,101995.95
2018-08-03T20:19:41.140Z,101991.05
2018-08-03T20:22:17.307Z,101986.95
2018-08-03T20:24:47.985Z,101991.27
2018-08-03T20:27:16.723Z,101985.63
2018-08-03T20:29:45.621Z,101991.86
2018-08-03T20:32:14.424Z,101994.32
2018-08-03T20:34:43.010Z,101992.20
2018-08-03T20:37:11.456Z,101998.04
2018-08-03T20:39:41.906Z,101999.66
2018-08-03T20:42:10.564Z,102001.67
2018-08-03T20:44:39.395Z,102003.64
2018-08-03T20:47:09.199Z,102007.42
2018-08-03T20:49:41.748Z,102007.42
2018-08-03T20:52:10.747Z,102002.52
2018-08-03T20:54:40.980Z,102010.80
2018-08-03T20:57:10.850Z,102013.17
2018-08-03T20:59:39.428Z,102011.27
2018-08-03T21:02:10.557Z,102017.88
2018-08-03T21:04:40.438Z,102020.14
2018-08-03T21:07:10.135Z,102020.52
2018-08-03T21:09:38.783Z,102028.14
2018-08-03T21:12:09.719Z,102031.27
2018-08-03T21:14:39.085Z,102031.66
2018-08-03T21:17:08.629Z,102034.81
2018-08-03T21:19:37.367Z,102031.24
2018-08-03T21:22:07.872Z,102042.00
2018-08-03T21:24:37.461Z,102054.55
2018-08-03T21:27:09.738Z,102051.36
2018-08-03T21:29:39.471Z,102052.02
2018-08-03T21:32:08.986Z,102049.78
2018-08-03T21:34:38.832Z,102051.03
2018-08-03T21:37:07.765Z,102049.12
2018-08-03T21:39:37.230Z,102058.83
2018-08-03T21:42:06.401Z,102062.48
2018-08-03T21:44:36.278Z,102058.32
2018-08-03T21:47:06.034Z,102066.12
2018-08-03T21:49:35.584Z,102069.63
2018-08-03T21:52:05.126Z,102070.67
2018-08-03T21:54:35.612Z,102068.08
2018-08-03T21:57:05.500Z,102064.92
2018-08-03T21:59:35.266Z,102073.55
2018-08-03T22:02:04.768Z,102071.59
2018-08-03T22:04:33.594Z,102071.16
2018-08-03T22:07:03.081Z,102078.36
2018-08-03T22:09:33.828Z,102081.48
2018-08-03T22:12:02.712Z,102073.33
2018-08-03T22:14:32.230Z,102077.11
2018-08-03T22:17:01.085Z,102082.21
2018-08-03T22:19:30.357Z,102080.52
2018-08-03T22:22:03.802Z,102083.08
2018-08-03T22:24:34.952Z,102080.52
2018-08-03T22:27:04.317Z,102079.67
2018-08-03T22:29:33.851Z,102079.27
2018-08-03T22:32:04.551Z,102085.94
2018-08-03T22:34:34.876Z,102078.41
2018-08-03T22:37:03.535Z,102082.92
2018-08-03T22:39:34.469Z,102086.12
2018-08-03T22:42:04.097Z,102088.52
2018-08-03T22:44:38.060Z,102087.53
2018-08-03T22:47:07.831Z,102082.03
2018-08-03T22:59:21.642Z,102075.42
2018-08-03T23:01:50.569Z,102070.86
2018-08-03T23:04:20.534Z,102068.43
2018-08-03T23:06:50.424Z,102068.23
2018-08-03T23:09:20.025Z,102067.84
2018-08-03T23:11:49.039Z,102067.30
2018-08-03T23:14:18.971Z,102071.38
2018-08-03T23:16:47.960Z,102070.43
2018-08-03T23:19:16.739Z,102072.16
2018-08-03T23:21:45.536Z,102070.22
2018-08-03T23:24:13.921Z,102067.20
2018-08-03T23:26:42.675Z,102061.38
2018-08-03T23:29:11.463Z,102061.69
2018-08-03T23:31:40.527Z,102050.05
2018-08-03T23:34:09.172Z,102054.27
2018-08-03T23:36:37.883Z,102040.98
2018-08-03T23:39:09.487Z,102038.45
2018-08-03T23:41:38.220Z,102032.58
2018-08-03T23:44:07.657Z,102031.77
2018-08-03T23:46:37.310Z,102023.23
2018-08-03T23:49:07.888Z,102018.02
2018-08-03T23:51:37.332Z,102022.41
2018-08-03T23:54:07.249Z,102016.56
2018-08-03T23:56:36.644Z,102014.48
2018-08-03T23:59:06.376Z,102015.09
